sensor_id;sensor_type;location;lat;lon;timestamp;temperature;humidity
3418;DHT22;1722;51.316;12.370;2022-10-17T00:00:42;18.30;92.90
3418;DHT22;1722;51.316;12.370;2022-10-17T00:03:10;18.30;92.90
3418;DHT22;1722;51.316;12.370;2022-10-17T00:05:40;18.30;92.90
3418;DHT22;1722;51.316;12.370;2022-10-17T00:08:08;18.20;93.00
3418;DHT22;1722;51.316;12.370;2022-10-17T00:10:37;18.20;93.00
3418;DHT22;1722;51.316;12.370;2022-10-17T00:13:05;18.20;93.00
3418;DHT22;1722;51.316;12.370;2022-10-17T00:15:32;18.20;93.10
3418;DHT22;1722;51.316;12.370;2022-10-17T00:18:00;18.20;93.10
3418;DHT22;1722;51.316;12.370;2022-10-17T00:20:27;18.20;93.10
3418;DHT22;1722;51.316;12.370;2022-10-17T00:22:57;18.20;93.40
3418;DHT22;1722;51.316;12.370;2022-10-17T00:25:24;18.20;93.10
3418;DHT22;1722;51.316;12.370;2022-10-17T00:27:51;18.20;93.20
3418;DHT22;1722;51.316;12.370;2022-10-17T00:30:19;18.20;93.10
3418;DHT22;1722;51.316;12.370;2022-10-17T00:32:46;18.20;93.10
3418;DHT22;1722;51.316;12.370;2022-10-17T00:35:14;18.20;93.10
3418;DHT22;1722;51.316;12.370;2022-10-17T00:37:41;18.10;93.10
3418;DHT22;1722;51.316;12.370;2022-10-17T00:40:11;18.20;93.10
3418;DHT22;1722;51.316;12.370;2022-10-17T00:42:38;18.20;93.00
3418;DHT22;1722;51.316;12.370;2022-10-17T00:45:14;18.10;93.00
3418;DHT22;1722;51.316;12.370;2022-10-17T00:47:45;18.10;93.00
3418;DHT22;1722;51.316;12.370;2022-10-17T00:50:14;18.10;93.00
3418;DHT22;1722;51.316;12.370;2022-10-17T00:52:42;18.10;93.10
3418;DHT22;1722;51.316;12.370;2022-10-17T00:55:16;18.10;93.10
3418;DHT22;1722;51.316;12.370;2022-10-17T00:57:44;18.10;93.00
3418;DHT22;1722;51.316;12.370;2022-10-17T01:00:13;18.00;93.30
3418;DHT22;1722;51.316;12.370;2022-10-17T01:02:41;18.00;93.00
3418;DHT22;1722;51.316;12.370;2022-10-17T01:05:09;18.00;93.00
3418;DHT22;1722;51.316;12.370;2022-10-17T01:07:39;17.90;93.00
3418;DHT22;1722;51.316;12.370;2022-10-17T01:10:08;17.90;93.00
3418;DHT22;1722;51.316;12.370;2022-10-17T01:12:47;17.90;93.00
3418;DHT22;1722;51.316;12.370;2022-10-17T01:15:22;17.90;93.00
3418;DHT22;1722;51.316;12.370;2022-10-17T01:18:02;17.90;93.00
3418;DHT22;1722;51.316;12.370;2022-10-17T01:21:03;17.90;93.00
3418;DHT22;1722;51.316;12.370;2022-10-17T01:26:30;17.90;93.00
3418;DHT22;1722;51.316;12.370;2022-10-17T01:29:22;17.80;92.90
3418;DHT22;1722;51.316;12.370;2022-10-17T01:31:57;17.80;92.90
3418;DHT22;1722;51.316;12.370;2022-10-17T01:34:31;17.80;92.90
3418;DHT22;1722;51.316;12.370;2022-10-17T01:37:04;17.80;92.90
3418;DHT22;1722;51.316;12.370;2022-10-17T01:39:39;17.80;92.90
3418;DHT22;1722;51.316;12.370;2022-10-17T01:42:14;17.80;92.90
3418;DHT22;1722;51.316;12.370;2022-10-17T01:44:47;17.80;92.90
3418;DHT22;1722;51.316;12.370;2022-10-17T01:47:19;17.70;92.90
3418;DHT22;1722;51.316;12.370;2022-10-17T01:49:50;17.80;92.90
3418;DHT22;1722;51.316;12.370;2022-10-17T01:52:21;17.70;92.90
3418;DHT22;1722;51.316;12.370;2022-10-17T01:54:51;17.80;92.90
3418;DHT22;1722;51.316;12.370;2022-10-17T01:57:25;17.80;92.80
3418;DHT22;1722;51.316;12.370;2022-10-17T01:59:55;17.70;93.10
3418;DHT22;1722;51.316;12.370;2022-10-17T02:02:25;17.70;93.00
3418;DHT22;1722;51.316;12.370;2022-10-17T02:04:54;17.70;92.90
3418;DHT22;1722;51.316;12.370;2022-10-17T02:07:23;17.70;93.20
3418;DHT22;1722;51.316;12.370;2022-10-17T02:09:50;17.70;93.10
3418;DHT22;1722;51.316;12.370;2022-10-17T02:12:29;17.60;93.30
3418;DHT22;1722;51.316;12.370;2022-10-17T02:15:16;17.60;93.40
3418;DHT22;1722;51.316;12.370;2022-10-17T02:17:54;17.40;93.90
3418;DHT22;1722;51.316;12.370;2022-10-17T02:20:27;17.30;94.10
3418;DHT22;1722;51.316;12.370;2022-10-17T02:23:02;17.30;94.20
3418;DHT22;1722;51.316;12.370;2022-10-17T02:25:37;17.30;93.90
3418;DHT22;1722;51.316;12.370;2022-10-17T02:28:16;17.40;93.80
3418;DHT22;1722;51.316;12.370;2022-10-17T02:30:49;17.30;93.80
3418;DHT22;1722;51.316;12.370;2022-10-17T02:33:22;17.40;93.70
3418;DHT22;1722;51.316;12.370;2022-10-17T02:35:53;17.50;93.30
3418;DHT22;1722;51.316;12.370;2022-10-17T02:38:23;17.30;93.90
3418;DHT22;1722;51.316;12.370;2022-10-17T02:40:52;17.30;93.80
3418;DHT22;1722;51.316;12.370;2022-10-17T02:43:21;17.30;93.90
3418;DHT22;1722;51.316;12.370;2022-10-17T02:45:49;17.20;94.10
3418;DHT22;1722;51.316;12.370;2022-10-17T02:48:26;17.20;93.80
3418;DHT22;1722;51.316;12.370;2022-10-17T02:51:01;17.20;93.90
3418;DHT22;1722;51.316;12.370;2022-10-17T02:53:36;17.30;93.70
3418;DHT22;1722;51.316;12.370;2022-10-17T02:56:09;17.30;93.60
3418;DHT22;1722;51.316;12.370;2022-10-17T02:58:40;17.30;93.70
3418;DHT22;1722;51.316;12.370;2022-10-17T03:01:09;17.30;93.90
3418;DHT22;1722;51.316;12.370;2022-10-17T03:03:38;17.10;94.20
3418;DHT22;1722;51.316;12.370;2022-10-17T03:06:05;17.00;94.40
3418;DHT22;1722;51.316;12.370;2022-10-17T03:08:32;17.10;94.10
3418;DHT22;1722;51.316;12.370;2022-10-17T03:11:00;17.10;94.40
3418;DHT22;1722;51.316;12.370;2022-10-17T03:13:27;17.00;94.40
3418;DHT22;1722;51.316;12.370;2022-10-17T03:15:55;17.00;94.50
3418;DHT22;1722;51.316;12.370;2022-10-17T03:18:23;17.00;94.00
3418;DHT22;1722;51.316;12.370;2022-10-17T03:20:52;17.20;93.80
3418;DHT22;1722;51.316;12.370;2022-10-17T03:23:19;17.10;94.00
3418;DHT22;1722;51.316;12.370;2022-10-17T03:25:46;17.10;94.10
3418;DHT22;1722;51.316;12.370;2022-10-17T03:28:14;17.10;93.80
3418;DHT22;1722;51.316;12.370;2022-10-17T03:30:41;16.90;94.50
3418;DHT22;1722;51.316;12.370;2022-10-17T03:33:09;16.80;94.60
3418;DHT22;1722;51.316;12.370;2022-10-17T03:35:37;16.60;94.90
3418;DHT22;1722;51.316;12.370;2022-10-17T03:38:06;16.40;95.50
3418;DHT22;1722;51.316;12.370;2022-10-17T03:40:34;16.30;95.70
3418;DHT22;1722;51.316;12.370;2022-10-17T03:43:01;16.30;95.50
3418;DHT22;1722;51.316;12.370;2022-10-17T03:45:29;16.30;95.60
3418;DHT22;1722;51.316;12.370;2022-10-17T03:47:57;16.20;95.70
3418;DHT22;1722;51.316;12.370;2022-10-17T03:50:25;16.20;95.70
3418;DHT22;1722;51.316;12.370;2022-10-17T03:52:52;16.30;95.60
3418;DHT22;1722;51.316;12.370;2022-10-17T03:55:21;16.10;95.90
3418;DHT22;1722;51.316;12.370;2022-10-17T03:57:48;16.20;95.70
3418;DHT22;1722;51.316;12.370;2022-10-17T04:00:16;16.30;95.40
3418;DHT22;1722;51.316;12.370;2022-10-17T04:02:43;16.20;95.50
3418;DHT22;1722;51.316;12.370;2022-10-17T04:05:11;16.10;95.90
3418;DHT22;1722;51.316;12.370;2022-10-17T04:07:38;16.10;95.80
3418;DHT22;1722;51.316;12.370;2022-10-17T04:10:07;16.10;95.90
3418;DHT22;1722;51.316;12.370;2022-10-17T04:12:35;16.10;95.90
3418;DHT22;1722;51.316;12.370;2022-10-17T04:15:04;16.00;96.10
3418;DHT22;1722;51.316;12.370;2022-10-17T04:17:32;16.00;96.10
3418;DHT22;1722;51.316;12.370;2022-10-17T04:19:59;15.90;96.40
3418;DHT22;1722;51.316;12.370;2022-10-17T04:22:26;15.90;96.40
3418;DHT22;1722;51.316;12.370;2022-10-17T04:24:54;15.90;96.30
3418;DHT22;1722;51.316;12.370;2022-10-17T04:27:21;15.90;96.10
3418;DHT22;1722;51.316;12.370;2022-10-17T04:29:50;16.00;96.00
3418;DHT22;1722;51.316;12.370;2022-10-17T04:32:17;16.10;95.80
3418;DHT22;1722;51.316;12.370;2022-10-17T04:34:47;16.10;95.70
3418;DHT22;1722;51.316;12.370;2022-10-17T04:37:15;16.00;95.80
3418;DHT22;1722;51.316;12.370;2022-10-17T04:39:42;16.00;96.00
3418;DHT22;1722;51.316;12.370;2022-10-17T04:42:10;16.10;95.70
3418;DHT22;1722;51.316;12.370;2022-10-17T04:44:37;16.10;95.60
3418;DHT22;1722;51.316;12.370;2022-10-17T04:47:07;16.20;95.50
3418;DHT22;1722;51.316;12.370;2022-10-17T04:49:34;16.10;95.50
3418;DHT22;1722;51.316;12.370;2022-10-17T04:52:02;16.10;95.70
3418;DHT22;1722;51.316;12.370;2022-10-17T04:54:29;16.10;95.60
3418;DHT22;1722;51.316;12.370;2022-10-17T04:56:56;16.00;95.70
3418;DHT22;1722;51.316;12.370;2022-10-17T04:59:24;16.00;95.80
3418;DHT22;1722;51.316;12.370;2022-10-17T05:01:51;15.80;96.10
3418;DHT22;1722;51.316;12.370;2022-10-17T05:04:20;15.90;96.00
3418;DHT22;1722;51.316;12.370;2022-10-17T05:06:48;15.90;96.00
3418;DHT22;1722;51.316;12.370;2022-10-17T05:09:15;15.90;96.00
3418;DHT22;1722;51.316;12.370;2022-10-17T05:11:43;15.90;96.00
3418;DHT22;1722;51.316;12.370;2022-10-17T05:14:10;15.90;96.00
3418;DHT22;1722;51.316;12.370;2022-10-17T05:16:38;15.90;95.90
3418;DHT22;1722;51.316;12.370;2022-10-17T05:19:05;15.80;96.20
3418;DHT22;1722;51.316;12.370;2022-10-17T05:21:34;15.80;96.10
3418;DHT22;1722;51.316;12.370;2022-10-17T05:24:04;15.80;96.20
3418;DHT22;1722;51.316;12.370;2022-10-17T05:26:32;15.70;96.20
3418;DHT22;1722;51.316;12.370;2022-10-17T05:28:59;15.80;96.10
3418;DHT22;1722;51.316;12.370;2022-10-17T05:31:27;15.80;96.10
3418;DHT22;1722;51.316;12.370;2022-10-17T05:33:58;15.80;96.10
3418;DHT22;1722;51.316;12.370;2022-10-17T05:36:26;15.80;96.10
3418;DHT22;1722;51.316;12.370;2022-10-17T05:38:55;15.60;96.40
3418;DHT22;1722;51.316;12.370;2022-10-17T05:41:22;15.60;96.40
3418;DHT22;1722;51.316;12.370;2022-10-17T05:43:50;15.60;96.50
3418;DHT22;1722;51.316;12.370;2022-10-17T05:46:17;15.60;96.50
3418;DHT22;1722;51.316;12.370;2022-10-17T05:48:45;15.70;96.40
3418;DHT22;1722;51.316;12.370;2022-10-17T05:51:12;15.60;96.30
3418;DHT22;1722;51.316;12.370;2022-10-17T05:53:40;15.60;96.40
3418;DHT22;1722;51.316;12.370;2022-10-17T05:56:11;15.60;96.50
3418;DHT22;1722;51.316;12.370;2022-10-17T05:58:40;15.60;96.60
3418;DHT22;1722;51.316;12.370;2022-10-17T06:01:09;15.50;96.70
3418;DHT22;1722;51.316;12.370;2022-10-17T06:03:37;15.60;96.70
3418;DHT22;1722;51.316;12.370;2022-10-17T06:06:06;15.70;96.40
3418;DHT22;1722;51.316;12.370;2022-10-17T06:08:33;15.60;96.40
3418;DHT22;1722;51.316;12.370;2022-10-17T06:11:01;15.70;96.30
3418;DHT22;1722;51.316;12.370;2022-10-17T06:13:30;15.60;96.50
3418;DHT22;1722;51.316;12.370;2022-10-17T06:15:57;15.70;96.30
3418;DHT22;1722;51.316;12.370;2022-10-17T06:18:25;15.70;96.50
3418;DHT22;1722;51.316;12.370;2022-10-17T06:20:52;15.70;96.20
3418;DHT22;1722;51.316;12.370;2022-10-17T06:23:20;15.70;96.20
3418;DHT22;1722;51.316;12.370;2022-10-17T06:25:47;15.70;96.20
3418;DHT22;1722;51.316;12.370;2022-10-17T06:28:15;15.80;96.00
3418;DHT22;1722;51.316;12.370;2022-10-17T06:30:43;15.80;95.80
3418;DHT22;1722;51.316;12.370;2022-10-17T06:33:11;15.90;96.00
3418;DHT22;1722;51.316;12.370;2022-10-17T06:35:38;15.90;95.80
3418;DHT22;1722;51.316;12.370;2022-10-17T06:38:06;15.90;95.70
3418;DHT22;1722;51.316;12.370;2022-10-17T06:40:33;15.90;95.80
3418;DHT22;1722;51.316;12.370;2022-10-17T06:43:00;16.00;95.70
3418;DHT22;1722;51.316;12.370;2022-10-17T06:45:28;16.00;95.60
3418;DHT22;1722;51.316;12.370;2022-10-17T06:47:56;16.10;95.50
3418;DHT22;1722;51.316;12.370;2022-10-17T06:50:24;16.10;95.40
3418;DHT22;1722;51.316;12.370;2022-10-17T06:52:51;16.10;95.30
3418;DHT22;1722;51.316;12.370;2022-10-17T06:55:19;16.20;95.20
3418;DHT22;1722;51.316;12.370;2022-10-17T06:57:46;16.20;95.20
3418;DHT22;1722;51.316;12.370;2022-10-17T07:00:14;16.20;95.00
3418;DHT22;1722;51.316;12.370;2022-10-17T07:02:41;16.20;95.00
3418;DHT22;1722;51.316;12.370;2022-10-17T07:05:10;16.20;95.20
3418;DHT22;1722;51.316;12.370;2022-10-17T07:07:37;16.20;95.30
3418;DHT22;1722;51.316;12.370;2022-10-17T07:10:05;16.30;95.30
3418;DHT22;1722;51.316;12.370;2022-10-17T07:12:34;16.30;95.20
3418;DHT22;1722;51.316;12.370;2022-10-17T07:15:03;16.30;95.20
3418;DHT22;1722;51.316;12.370;2022-10-17T07:17:33;16.40;95.10
3418;DHT22;1722;51.316;12.370;2022-10-17T07:20:00;16.40;95.20
3418;DHT22;1722;51.316;12.370;2022-10-17T07:22:29;16.50;95.00
3418;DHT22;1722;51.316;12.370;2022-10-17T07:24:56;16.50;95.10
3418;DHT22;1722;51.316;12.370;2022-10-17T07:27:24;16.50;95.00
3418;DHT22;1722;51.316;12.370;2022-10-17T07:29:51;16.60;94.90
3418;DHT22;1722;51.316;12.370;2022-10-17T07:32:19;16.70;94.70
3418;DHT22;1722;51.316;12.370;2022-10-17T07:34:46;16.80;94.60
3418;DHT22;1722;51.316;12.370;2022-10-17T07:37:14;16.80;94.50
3418;DHT22;1722;51.316;12.370;2022-10-17T07:39:42;16.80;94.30
3418;DHT22;1722;51.316;12.370;2022-10-17T07:42:10;16.80;94.20
3418;DHT22;1722;51.316;12.370;2022-10-17T07:44:39;16.90;94.20
3418;DHT22;1722;51.316;12.370;2022-10-17T07:47:06;16.90;94.20
3418;DHT22;1722;51.316;12.370;2022-10-17T07:49:34;17.00;94.10
3418;DHT22;1722;51.316;12.370;2022-10-17T07:52:08;17.10;93.90
3418;DHT22;1722;51.316;12.370;2022-10-17T07:54:36;17.10;93.90
3418;DHT22;1722;51.316;12.370;2022-10-17T07:57:05;17.20;93.70
3418;DHT22;1722;51.316;12.370;2022-10-17T07:59:33;17.30;93.50
3418;DHT22;1722;51.316;12.370;2022-10-17T08:02:01;17.40;93.50
3418;DHT22;1722;51.316;12.370;2022-10-17T08:04:29;17.30;93.60
3418;DHT22;1722;51.316;12.370;2022-10-17T08:06:56;17.30;93.80
3418;DHT22;1722;51.316;12.370;2022-10-17T08:09:24;17.40;93.40
3418;DHT22;1722;51.316;12.370;2022-10-17T08:11:51;17.40;93.30
3418;DHT22;1722;51.316;12.370;2022-10-17T08:14:20;17.50;93.30
3418;DHT22;1722;51.316;12.370;2022-10-17T08:16:48;17.50;93.20
3418;DHT22;1722;51.316;12.370;2022-10-17T08:19:15;17.60;93.10
3418;DHT22;1722;51.316;12.370;2022-10-17T08:21:42;17.60;93.00
3418;DHT22;1722;51.316;12.370;2022-10-17T08:24:12;17.70;92.80
3418;DHT22;1722;51.316;12.370;2022-10-17T08:26:39;17.70;92.80
3418;DHT22;1722;51.316;12.370;2022-10-17T08:29:11;17.70;92.70
3418;DHT22;1722;51.316;12.370;2022-10-17T08:31:40;17.70;92.90
3418;DHT22;1722;51.316;12.370;2022-10-17T08:34:08;17.60;92.90
3418;DHT22;1722;51.316;12.370;2022-10-17T08:36:35;17.70;92.90
3418;DHT22;1722;51.316;12.370;2022-10-17T08:39:03;17.80;92.70
3418;DHT22;1722;51.316;12.370;2022-10-17T08:41:43;17.90;92.60
3418;DHT22;1722;51.316;12.370;2022-10-17T08:44:21;17.90;92.30
3418;DHT22;1722;51.316;12.370;2022-10-17T08:46:55;18.00;92.10
3418;DHT22;1722;51.316;12.370;2022-10-17T08:49:29;18.10;92.20
3418;DHT22;1722;51.316;12.370;2022-10-17T08:52:02;18.20;91.70
3418;DHT22;1722;51.316;12.370;2022-10-17T08:54:37;18.40;91.70
3418;DHT22;1722;51.316;12.370;2022-10-17T08:57:10;18.50;91.30
3418;DHT22;1722;51.316;12.370;2022-10-17T08:59:38;18.60;90.90
3418;DHT22;1722;51.316;12.370;2022-10-17T09:02:22;18.80;90.40
3418;DHT22;1722;51.316;12.370;2022-10-17T09:05:09;18.90;90.00
3418;DHT22;1722;51.316;12.370;2022-10-17T09:07:45;19.00;89.90
3418;DHT22;1722;51.316;12.370;2022-10-17T09:10:20;19.10;88.60
3418;DHT22;1722;51.316;12.370;2022-10-17T09:13:09;19.20;88.80
3418;DHT22;1722;51.316;12.370;2022-10-17T09:18:31;19.30;88.30
3418;DHT22;1722;51.316;12.370;2022-10-17T09:21:04;19.40;87.80
3418;DHT22;1722;51.316;12.370;2022-10-17T09:23:41;19.50;88.20
3418;DHT22;1722;51.316;12.370;2022-10-17T09:26:10;19.50;88.10
3418;DHT22;1722;51.316;12.370;2022-10-17T09:28:39;19.50;87.80
3418;DHT22;1722;51.316;12.370;2022-10-17T09:31:11;19.50;87.80
3418;DHT22;1722;51.316;12.370;2022-10-17T09:33:43;19.70;87.80
3418;DHT22;1722;51.316;12.370;2022-10-17T09:36:14;19.70;88.00
3418;DHT22;1722;51.316;12.370;2022-10-17T09:38:44;19.90;87.50
3418;DHT22;1722;51.316;12.370;2022-10-17T09:41:17;20.00;87.40
3418;DHT22;1722;51.316;12.370;2022-10-17T09:43:45;20.10;86.90
3418;DHT22;1722;51.316;12.370;2022-10-17T09:46:16;20.20;86.90
3418;DHT22;1722;51.316;12.370;2022-10-17T09:48:50;20.30;85.80
3418;DHT22;1722;51.316;12.370;2022-10-17T09:51:18;20.40;85.20
3418;DHT22;1722;51.316;12.370;2022-10-17T09:53:49;20.50;84.40
3418;DHT22;1722;51.316;12.370;2022-10-17T09:56:18;20.60;83.80
3418;DHT22;1722;51.316;12.370;2022-10-17T09:58:48;20.70;83.60
3418;DHT22;1722;51.316;12.370;2022-10-17T10:01:18;20.90;82.70
3418;DHT22;1722;51.316;12.370;2022-10-17T10:03:48;21.00;82.90
3418;DHT22;1722;51.316;12.370;2022-10-17T10:06:19;21.10;82.10
3418;DHT22;1722;51.316;12.370;2022-10-17T10:08:50;21.20;81.60
3418;DHT22;1722;51.316;12.370;2022-10-17T10:11:21;21.30;81.30
3418;DHT22;1722;51.316;12.370;2022-10-17T10:13:49;21.50;79.60
3418;DHT22;1722;51.316;12.370;2022-10-17T10:16:21;21.60;79.80
3418;DHT22;1722;51.316;12.370;2022-10-17T10:18:51;21.70;78.90
3418;DHT22;1722;51.316;12.370;2022-10-17T10:21:20;21.80;77.90
3418;DHT22;1722;51.316;12.370;2022-10-17T10:24:03;22.00;78.30
3418;DHT22;1722;51.316;12.370;2022-10-17T10:26:36;22.10;78.10
3418;DHT22;1722;51.316;12.370;2022-10-17T10:29:06;22.30;78.00
3418;DHT22;1722;51.316;12.370;2022-10-17T10:31:45;22.50;76.00
3418;DHT22;1722;51.316;12.370;2022-10-17T10:34:18;22.70;74.40
3418;DHT22;1722;51.316;12.370;2022-10-17T10:36:56;22.80;74.50
3418;DHT22;1722;51.316;12.370;2022-10-17T10:39:30;22.90;74.70
3418;DHT22;1722;51.316;12.370;2022-10-17T10:42:20;23.00;72.80
3418;DHT22;1722;51.316;12.370;2022-10-17T10:44:48;23.20;72.70
3418;DHT22;1722;51.316;12.370;2022-10-17T10:47:19;23.20;73.50
3418;DHT22;1722;51.316;12.370;2022-10-17T10:49:52;23.30;72.30
3418;DHT22;1722;51.316;12.370;2022-10-17T10:52:37;23.50;72.40
3418;DHT22;1722;51.316;12.370;2022-10-17T10:55:16;23.60;71.60
3418;DHT22;1722;51.316;12.370;2022-10-17T10:57:49;23.80;70.40
3418;DHT22;1722;51.316;12.370;2022-10-17T11:00:22;23.90;70.40
3418;DHT22;1722;51.316;12.370;2022-10-17T11:02:55;24.00;69.50
3418;DHT22;1722;51.316;12.370;2022-10-17T11:05:38;24.00;69.60
3418;DHT22;1722;51.316;12.370;2022-10-17T11:08:14;24.20;68.60
3418;DHT22;1722;51.316;12.370;2022-10-17T11:10:56;24.40;68.10
3418;DHT22;1722;51.316;12.370;2022-10-17T11:13:29;24.70;67.30
3418;DHT22;1722;51.316;12.370;2022-10-17T11:16:15;25.00;66.90
3418;DHT22;1722;51.316;12.370;2022-10-17T11:18:47;25.40;63.90
3418;DHT22;1722;51.316;12.370;2022-10-17T11:21:22;25.80;61.70
3418;DHT22;1722;51.316;12.370;2022-10-17T11:23:58;25.90;61.50
3418;DHT22;1722;51.316;12.370;2022-10-17T11:26:30;26.00;61.30
3418;DHT22;1722;51.316;12.370;2022-10-17T11:29:02;26.20;59.90
3418;DHT22;1722;51.316;12.370;2022-10-17T11:31:35;26.20;60.70
3418;DHT22;1722;51.316;12.370;2022-10-17T11:34:06;26.50;60.60
3418;DHT22;1722;51.316;12.370;2022-10-17T11:36:39;26.80;61.30
3418;DHT22;1722;51.316;12.370;2022-10-17T11:39:13;26.80;62.10
3418;DHT22;1722;51.316;12.370;2022-10-17T11:41:45;27.20;61.10
3418;DHT22;1722;51.316;12.370;2022-10-17T11:44:19;27.60;55.70
3418;DHT22;1722;51.316;12.370;2022-10-17T11:46:52;27.60;56.40
3418;DHT22;1722;51.316;12.370;2022-10-17T11:49:24;27.70;57.50
3418;DHT22;1722;51.316;12.370;2022-10-17T11:52:00;27.70;56.60
3418;DHT22;1722;51.316;12.370;2022-10-17T11:54:33;27.70;55.00
3418;DHT22;1722;51.316;12.370;2022-10-17T11:57:22;28.10;56.70
3418;DHT22;1722;51.316;12.370;2022-10-17T11:59:59;28.10;56.50
3418;DHT22;1722;51.316;12.370;2022-10-17T12:02:35;28.60;53.10
3418;DHT22;1722;51.316;12.370;2022-10-17T12:05:14;28.60;53.90
3418;DHT22;1722;51.316;12.370;2022-10-17T12:07:49;28.70;55.90
3418;DHT22;1722;51.316;12.370;2022-10-17T12:10:38;28.90;51.40
3418;DHT22;1722;51.316;12.370;2022-10-17T12:13:47;28.90;54.10
3418;DHT22;1722;51.316;12.370;2022-10-17T12:16:41;28.60;55.90
3418;DHT22;1722;51.316;12.370;2022-10-17T12:19:20;28.60;52.60
3418;DHT22;1722;51.316;12.370;2022-10-17T12:21:57;28.80;54.50
3418;DHT22;1722;51.316;12.370;2022-10-17T12:24:38;28.80;52.10
3418;DHT22;1722;51.316;12.370;2022-10-17T12:27:38;28.80;54.80
3418;DHT22;1722;51.316;12.370;2022-10-17T12:30:17;28.80;54.50
3418;DHT22;1722;51.316;12.370;2022-10-17T12:32:57;28.80;52.50
3418;DHT22;1722;51.316;12.370;2022-10-17T12:35:26;28.70;52.70
3418;DHT22;1722;51.316;12.370;2022-10-17T12:38:19;28.70;53.90
3418;DHT22;1722;51.316;12.370;2022-10-17T12:40:53;28.50;52.70
3418;DHT22;1722;51.316;12.370;2022-10-17T12:43:49;28.40;52.70
3418;DHT22;1722;51.316;12.370;2022-10-17T12:46:47;28.30;57.00
3418;DHT22;1722;51.316;12.370;2022-10-17T12:49:35;28.00;58.00
3418;DHT22;1722;51.316;12.370;2022-10-17T12:52:26;28.20;57.10
3418;DHT22;1722;51.316;12.370;2022-10-17T12:55:05;28.70;52.00
3418;DHT22;1722;51.316;12.370;2022-10-17T12:57:42;28.60;56.60
3418;DHT22;1722;51.316;12.370;2022-10-17T13:00:20;28.30;55.00
3418;DHT22;1722;51.316;12.370;2022-10-17T13:02:50;28.50;56.20
3418;DHT22;1722;51.316;12.370;2022-10-17T13:05:25;28.40;56.40
3418;DHT22;1722;51.316;12.370;2022-10-17T13:07:54;28.80;52.00
3418;DHT22;1722;51.316;12.370;2022-10-17T13:10:24;29.30;54.30
3418;DHT22;1722;51.316;12.370;2022-10-17T13:13:01;28.80;56.10
3418;DHT22;1722;51.316;12.370;2022-10-17T13:15:30;28.70;53.50
3418;DHT22;1722;51.316;12.370;2022-10-17T13:17:59;28.80;52.40
3418;DHT22;1722;51.316;12.370;2022-10-17T13:20:29;29.00;52.20
3418;DHT22;1722;51.316;12.370;2022-10-17T13:22:58;29.00;55.70
3418;DHT22;1722;51.316;12.370;2022-10-17T13:25:26;29.00;53.20
3418;DHT22;1722;51.316;12.370;2022-10-17T13:28:13;29.60;50.10
3418;DHT22;1722;51.316;12.370;2022-10-17T13:30:45;29.60;51.30
3418;DHT22;1722;51.316;12.370;2022-10-17T13:33:31;29.70;49.70
3418;DHT22;1722;51.316;12.370;2022-10-17T13:36:01;29.80;52.90
3418;DHT22;1722;51.316;12.370;2022-10-17T13:38:31;29.40;54.60
3418;DHT22;1722;51.316;12.370;2022-10-17T13:41:00;29.10;55.50
3418;DHT22;1722;51.316;12.370;2022-10-17T13:43:30;29.00;52.30
3418;DHT22;1722;51.316;12.370;2022-10-17T13:46:00;29.10;55.00
3418;DHT22;1722;51.316;12.370;2022-10-17T13:48:35;29.10;54.60
3418;DHT22;1722;51.316;12.370;2022-10-17T13:51:04;29.30;51.90
3418;DHT22;1722;51.316;12.370;2022-10-17T13:53:34;29.50;50.30
3418;DHT22;1722;51.316;12.370;2022-10-17T13:56:04;29.70;52.40
3418;DHT22;1722;51.316;12.370;2022-10-17T13:58:39;29.50;54.20
3418;DHT22;1722;51.316;12.370;2022-10-17T14:01:08;29.30;54.70
3418;DHT22;1722;51.316;12.370;2022-10-17T14:03:35;29.30;49.70
3418;DHT22;1722;51.316;12.370;2022-10-17T14:06:13;29.40;53.60
3418;DHT22;1722;51.316;12.370;2022-10-17T14:08:49;29.30;53.10
3418;DHT22;1722;51.316;12.370;2022-10-17T14:11:23;29.10;54.60
3418;DHT22;1722;51.316;12.370;2022-10-17T14:13:54;28.90;50.60
3418;DHT22;1722;51.316;12.370;2022-10-17T14:16:22;29.00;54.80
3418;DHT22;1722;51.316;12.370;2022-10-17T14:18:51;28.80;54.50
3418;DHT22;1722;51.316;12.370;2022-10-17T14:21:22;28.80;49.60
3418;DHT22;1722;51.316;12.370;2022-10-17T14:23:51;28.70;54.40
3418;DHT22;1722;51.316;12.370;2022-10-17T14:26:19;28.60;48.80
3418;DHT22;1722;51.316;12.370;2022-10-17T14:28:50;28.80;53.00
3418;DHT22;1722;51.316;12.370;2022-10-17T14:31:22;28.60;53.40
3418;DHT22;1722;51.316;12.370;2022-10-17T14:33:52;28.80;48.90
3418;DHT22;1722;51.316;12.370;2022-10-17T14:36:28;28.70;53.00
3418;DHT22;1722;51.316;12.370;2022-10-17T14:38:57;28.70;48.50
3418;DHT22;1722;51.316;12.370;2022-10-17T14:41:27;28.80;50.00
3418;DHT22;1722;51.316;12.370;2022-10-17T14:43:58;28.80;50.30
3418;DHT22;1722;51.316;12.370;2022-10-17T14:46:28;28.70;51.80
3418;DHT22;1722;51.316;12.370;2022-10-17T14:49:02;28.70;49.30
3418;DHT22;1722;51.316;12.370;2022-10-17T14:51:29;28.80;51.00
3418;DHT22;1722;51.316;12.370;2022-10-17T14:54:00;28.80;48.90
3418;DHT22;1722;51.316;12.370;2022-10-17T14:56:35;28.80;50.90
3418;DHT22;1722;51.316;12.370;2022-10-17T14:59:03;28.80;48.30
3418;DHT22;1722;51.316;12.370;2022-10-17T15:01:33;28.70;51.50
3418;DHT22;1722;51.316;12.370;2022-10-17T15:04:01;28.50;52.20
3418;DHT22;1722;51.316;12.370;2022-10-17T15:06:32;28.40;49.00
3418;DHT22;1722;51.316;12.370;2022-10-17T15:08:59;28.40;52.10
3418;DHT22;1722;51.316;12.370;2022-10-17T15:11:27;28.30;50.80
3418;DHT22;1722;51.316;12.370;2022-10-17T15:13:54;28.20;52.50
3418;DHT22;1722;51.316;12.370;2022-10-17T15:16:23;28.10;51.80
3418;DHT22;1722;51.316;12.370;2022-10-17T15:18:53;28.00;54.30
3418;DHT22;1722;51.316;12.370;2022-10-17T15:21:23;27.90;53.20
3418;DHT22;1722;51.316;12.370;2022-10-17T15:23:51;27.80;54.50
3418;DHT22;1722;51.316;12.370;2022-10-17T15:26:20;27.80;50.70
3418;DHT22;1722;51.316;12.370;2022-10-17T15:28:48;27.70;52.10
3418;DHT22;1722;51.316;12.370;2022-10-17T15:31:18;27.70;53.70
3418;DHT22;1722;51.316;12.370;2022-10-17T15:33:46;27.60;52.70
3418;DHT22;1722;51.316;12.370;2022-10-17T15:36:23;27.60;54.90
3418;DHT22;1722;51.316;12.370;2022-10-17T15:38:52;27.50;54.10
3418;DHT22;1722;51.316;12.370;2022-10-17T15:41:21;27.40;52.40
3418;DHT22;1722;51.316;12.370;2022-10-17T15:43:49;27.40;55.10
3418;DHT22;1722;51.316;12.370;2022-10-17T15:46:18;27.40;55.20
3418;DHT22;1722;51.316;12.370;2022-10-17T15:48:46;27.30;54.60
3418;DHT22;1722;51.316;12.370;2022-10-17T15:51:14;27.20;55.60
3418;DHT22;1722;51.316;12.370;2022-10-17T15:53:43;27.10;54.30
3418;DHT22;1722;51.316;12.370;2022-10-17T15:56:18;27.00;56.00
3418;DHT22;1722;51.316;12.370;2022-10-17T15:58:46;26.90;55.30
3418;DHT22;1722;51.316;12.370;2022-10-17T16:01:18;26.80;56.30
3418;DHT22;1722;51.316;12.370;2022-10-17T16:03:47;26.80;56.50
3418;DHT22;1722;51.316;12.370;2022-10-17T16:06:16;26.70;55.40
3418;DHT22;1722;51.316;12.370;2022-10-17T16:08:46;26.50;57.60
3418;DHT22;1722;51.316;12.370;2022-10-17T16:11:17;26.40;57.70
3418;DHT22;1722;51.316;12.370;2022-10-17T16:13:50;26.20;57.20
3418;DHT22;1722;51.316;12.370;2022-10-17T16:16:18;26.20;57.30